NCAR-RAP Real-Time Weather Data

Output produced by METARs form (14 October 2019  22:33 UTC)
found at http://weather.rap.ucar.edu/surface/
 
KGRI 142153Z 18015KT 10SM CLR 23/07 A2977 RMK AO2 SLP083 T02330072
KGRI 142053Z 17014KT 10SM CLR 24/07 A2978 RMK AO2 SLP088 T02390067 56029